sensor_id;sensor_type;location;lat;lon;timestamp;temperature;humidity
42149;DHT22;64624;47.208;8.706;2024-01-10T00:02:07;14.00;47.60
42149;DHT22;64624;47.208;8.706;2024-01-10T00:04:32;14.00;47.70
42149;DHT22;64624;47.208;8.706;2024-01-10T00:06:58;14.00;47.70
42149;DHT22;64624;47.208;8.706;2024-01-10T00:09:24;14.00;47.60
42149;DHT22;64624;47.208;8.706;2024-01-10T00:11:50;14.00;47.70
42149;DHT22;64624;47.208;8.706;2024-01-10T00:14:16;14.00;47.70
42149;DHT22;64624;47.208;8.706;2024-01-10T00:16:42;14.00;47.60
42149;DHT22;64624;47.208;8.706;2024-01-10T00:19:07;14.00;47.60
42149;DHT22;64624;47.208;8.706;2024-01-10T00:21:33;14.00;47.70
42149;DHT22;64624;47.208;8.706;2024-01-10T00:24:00;13.90;47.60
42149;DHT22;64624;47.208;8.706;2024-01-10T00:26:26;14.00;47.60
42149;DHT22;64624;47.208;8.706;2024-01-10T00:28:52;14.00;47.60
42149;DHT22;64624;47.208;8.706;2024-01-10T00:31:17;14.00;47.60
42149;DHT22;64624;47.208;8.706;2024-01-10T00:33:43;14.00;47.60
42149;DHT22;64624;47.208;8.706;2024-01-10T00:36:09;14.00;47.70
42149;DHT22;64624;47.208;8.706;2024-01-10T00:38:36;14.00;47.60
42149;DHT22;64624;47.208;8.706;2024-01-10T00:41:01;14.00;47.60
42149;DHT22;64624;47.208;8.706;2024-01-10T00:43:28;14.00;47.60
42149;DHT22;64624;47.208;8.706;2024-01-10T00:45:54;14.00;47.70
42149;DHT22;64624;47.208;8.706;2024-01-10T00:48:19;14.00;47.60
42149;DHT22;64624;47.208;8.706;2024-01-10T00:50:45;14.00;47.60
42149;DHT22;64624;47.208;8.706;2024-01-10T00:53:11;14.00;47.60
42149;DHT22;64624;47.208;8.706;2024-01-10T00:55:37;13.90;47.60
42149;DHT22;64624;47.208;8.706;2024-01-10T00:58:03;13.90;47.60
42149;DHT22;64624;47.208;8.706;2024-01-10T01:00:31;14.00;47.70
42149;DHT22;64624;47.208;8.706;2024-01-10T01:02:57;14.00;47.70
42149;DHT22;64624;47.208;8.706;2024-01-10T01:05:22;13.90;47.60
42149;DHT22;64624;47.208;8.706;2024-01-10T01:07:48;14.00;47.60
42149;DHT22;64624;47.208;8.706;2024-01-10T01:10:14;14.00;47.50
42149;DHT22;64624;47.208;8.706;2024-01-10T01:12:40;14.00;47.60
42149;DHT22;64624;47.208;8.706;2024-01-10T01:15:06;13.90;47.60
42149;DHT22;64624;47.208;8.706;2024-01-10T01:17:32;13.90;47.50
42149;DHT22;64624;47.208;8.706;2024-01-10T01:19:57;13.90;47.50
42149;DHT22;64624;47.208;8.706;2024-01-10T01:22:23;13.90;47.60
42149;DHT22;64624;47.208;8.706;2024-01-10T01:24:49;13.90;47.50
42149;DHT22;64624;47.208;8.706;2024-01-10T01:27:15;13.90;47.50
42149;DHT22;64624;47.208;8.706;2024-01-10T01:29:40;13.90;47.60
42149;DHT22;64624;47.208;8.706;2024-01-10T01:32:06;13.90;47.60
42149;DHT22;64624;47.208;8.706;2024-01-10T01:34:32;13.90;47.60
42149;DHT22;64624;47.208;8.706;2024-01-10T01:36:57;13.90;47.60
42149;DHT22;64624;47.208;8.706;2024-01-10T01:39:23;14.00;47.70
42149;DHT22;64624;47.208;8.706;2024-01-10T01:41:49;13.90;47.60
42149;DHT22;64624;47.208;8.706;2024-01-10T01:44:15;13.90;47.50
42149;DHT22;64624;47.208;8.706;2024-01-10T01:46:40;13.90;47.60
42149;DHT22;64624;47.208;8.706;2024-01-10T01:49:06;13.90;47.60
42149;DHT22;64624;47.208;8.706;2024-01-10T01:51:35;13.90;47.60
42149;DHT22;64624;47.208;8.706;2024-01-10T01:54:06;13.90;47.60
42149;DHT22;64624;47.208;8.706;2024-01-10T01:56:35;13.90;47.50
42149;DHT22;64624;47.208;8.706;2024-01-10T01:59:02;13.90;47.50
42149;DHT22;64624;47.208;8.706;2024-01-10T02:01:29;13.90;47.50
42149;DHT22;64624;47.208;8.706;2024-01-10T02:03:55;13.90;47.50
42149;DHT22;64624;47.208;8.706;2024-01-10T02:06:22;13.90;47.50
42149;DHT22;64624;47.208;8.706;2024-01-10T02:08:47;13.90;47.50
42149;DHT22;64624;47.208;8.706;2024-01-10T02:11:13;13.90;47.50
42149;DHT22;64624;47.208;8.706;2024-01-10T02:13:39;13.90;47.50
42149;DHT22;64624;47.208;8.706;2024-01-10T02:16:06;13.90;47.50
42149;DHT22;64624;47.208;8.706;2024-01-10T02:18:33;13.90;47.40
42149;DHT22;64624;47.208;8.706;2024-01-10T02:21:00;13.90;47.40
42149;DHT22;64624;47.208;8.706;2024-01-10T02:23:26;13.90;47.40
42149;DHT22;64624;47.208;8.706;2024-01-10T02:25:52;13.90;47.30
42149;DHT22;64624;47.208;8.706;2024-01-10T02:28:18;13.90;47.30
42149;DHT22;64624;47.208;8.706;2024-01-10T02:30:43;13.90;47.40
42149;DHT22;64624;47.208;8.706;2024-01-10T02:33:09;13.90;47.40
42149;DHT22;64624;47.208;8.706;2024-01-10T02:35:35;13.90;47.40
42149;DHT22;64624;47.208;8.706;2024-01-10T02:38:02;13.80;47.40
42149;DHT22;64624;47.208;8.706;2024-01-10T02:40:28;13.90;47.40
42149;DHT22;64624;47.208;8.706;2024-01-10T02:42:54;13.90;47.40
42149;DHT22;64624;47.208;8.706;2024-01-10T02:45:19;13.90;47.40
42149;DHT22;64624;47.208;8.706;2024-01-10T02:47:45;13.90;47.40
42149;DHT22;64624;47.208;8.706;2024-01-10T02:50:11;13.90;47.40
42149;DHT22;64624;47.208;8.706;2024-01-10T02:52:37;13.90;47.40
42149;DHT22;64624;47.208;8.706;2024-01-10T02:55:03;13.90;47.50
42149;DHT22;64624;47.208;8.706;2024-01-10T02:57:29;13.90;47.40
42149;DHT22;64624;47.208;8.706;2024-01-10T02:59:54;13.90;47.50
42149;DHT22;64624;47.208;8.706;2024-01-10T03:02:20;13.90;47.50
42149;DHT22;64624;47.208;8.706;2024-01-10T03:04:48;13.90;47.50
42149;DHT22;64624;47.208;8.706;2024-01-10T03:07:14;13.90;47.50
42149;DHT22;64624;47.208;8.706;2024-01-10T03:09:40;13.90;47.50
42149;DHT22;64624;47.208;8.706;2024-01-10T03:12:06;13.90;47.50
42149;DHT22;64624;47.208;8.706;2024-01-10T03:14:33;13.90;47.50
42149;DHT22;64624;47.208;8.706;2024-01-10T03:16:59;13.90;47.50
42149;DHT22;64624;47.208;8.706;2024-01-10T03:19:25;13.90;47.50
42149;DHT22;64624;47.208;8.706;2024-01-10T03:21:51;13.90;47.50
42149;DHT22;64624;47.208;8.706;2024-01-10T03:24:16;13.90;47.50
42149;DHT22;64624;47.208;8.706;2024-01-10T03:26:43;13.90;47.50
42149;DHT22;64624;47.208;8.706;2024-01-10T03:29:09;13.90;47.50
42149;DHT22;64624;47.208;8.706;2024-01-10T03:31:34;13.90;47.50
42149;DHT22;64624;47.208;8.706;2024-01-10T03:34:00;13.90;47.50
42149;DHT22;64624;47.208;8.706;2024-01-10T03:36:26;13.90;47.50
42149;DHT22;64624;47.208;8.706;2024-01-10T03:38:51;13.90;47.50
42149;DHT22;64624;47.208;8.706;2024-01-10T03:41:18;13.90;47.50
42149;DHT22;64624;47.208;8.706;2024-01-10T03:43:45;13.90;47.50
42149;DHT22;64624;47.208;8.706;2024-01-10T03:46:11;13.90;47.50
42149;DHT22;64624;47.208;8.706;2024-01-10T03:48:37;13.90;47.50
42149;DHT22;64624;47.208;8.706;2024-01-10T03:51:06;13.90;47.50
42149;DHT22;64624;47.208;8.706;2024-01-10T03:53:32;13.90;47.50
42149;DHT22;64624;47.208;8.706;2024-01-10T03:55:57;13.90;47.50
42149;DHT22;64624;47.208;8.706;2024-01-10T03:58:23;13.90;47.50
42149;DHT22;64624;47.208;8.706;2024-01-10T04:00:49;13.90;47.50
42149;DHT22;64624;47.208;8.706;2024-01-10T04:03:15;13.90;47.50
42149;DHT22;64624;47.208;8.706;2024-01-10T04:05:42;13.90;47.60
42149;DHT22;64624;47.208;8.706;2024-01-10T04:08:08;13.90;47.60
42149;DHT22;64624;47.208;8.706;2024-01-10T04:10:33;13.90;47.60
42149;DHT22;64624;47.208;8.706;2024-01-10T04:12:59;13.90;47.60
42149;DHT22;64624;47.208;8.706;2024-01-10T04:15:25;13.90;47.60
42149;DHT22;64624;47.208;8.706;2024-01-10T04:17:51;13.90;47.60
42149;DHT22;64624;47.208;8.706;2024-01-10T04:20:16;13.90;47.60
42149;DHT22;64624;47.208;8.706;2024-01-10T04:22:42;13.90;47.50
42149;DHT22;64624;47.208;8.706;2024-01-10T04:25:08;13.90;47.50
42149;DHT22;64624;47.208;8.706;2024-01-10T04:27:34;13.90;47.50
42149;DHT22;64624;47.208;8.706;2024-01-10T04:30:00;13.80;47.50
42149;DHT22;64624;47.208;8.706;2024-01-10T04:32:26;13.80;47.40
42149;DHT22;64624;47.208;8.706;2024-01-10T04:34:51;13.90;47.50
42149;DHT22;64624;47.208;8.706;2024-01-10T04:37:18;13.90;47.50
42149;DHT22;64624;47.208;8.706;2024-01-10T04:39:43;13.90;47.50
42149;DHT22;64624;47.208;8.706;2024-01-10T04:42:12;13.90;47.50
42149;DHT22;64624;47.208;8.706;2024-01-10T04:44:38;13.90;47.50
42149;DHT22;64624;47.208;8.706;2024-01-10T04:47:05;13.80;47.40
42149;DHT22;64624;47.208;8.706;2024-01-10T04:49:31;13.80;47.40
42149;DHT22;64624;47.208;8.706;2024-01-10T04:51:56;13.90;47.50
42149;DHT22;64624;47.208;8.706;2024-01-10T04:54:23;13.90;47.50
42149;DHT22;64624;47.208;8.706;2024-01-10T04:56:48;13.90;47.50
42149;DHT22;64624;47.208;8.706;2024-01-10T04:59:14;13.90;47.60
42149;DHT22;64624;47.208;8.706;2024-01-10T05:01:40;13.90;47.50
42149;DHT22;64624;47.208;8.706;2024-01-10T05:04:06;13.80;47.50
42149;DHT22;64624;47.208;8.706;2024-01-10T05:06:32;13.80;47.50
42149;DHT22;64624;47.208;8.706;2024-01-10T05:08:57;13.90;47.60
42149;DHT22;64624;47.208;8.706;2024-01-10T05:11:24;13.90;47.60
42149;DHT22;64624;47.208;8.706;2024-01-10T05:13:54;13.90;47.60
42149;DHT22;64624;47.208;8.706;2024-01-10T05:16:20;13.90;47.60
42149;DHT22;64624;47.208;8.706;2024-01-10T05:18:47;13.80;47.60
42149;DHT22;64624;47.208;8.706;2024-01-10T05:21:13;13.90;47.60
42149;DHT22;64624;47.208;8.706;2024-01-10T05:23:39;13.80;47.60
42149;DHT22;64624;47.208;8.706;2024-01-10T05:26:06;13.90;47.60
42149;DHT22;64624;47.208;8.706;2024-01-10T05:28:31;13.80;47.50
42149;DHT22;64624;47.208;8.706;2024-01-10T05:31:01;13.90;47.60
42149;DHT22;64624;47.208;8.706;2024-01-10T05:33:30;13.90;47.60
42149;DHT22;64624;47.208;8.706;2024-01-10T05:35:55;13.90;47.60
42149;DHT22;64624;47.208;8.706;2024-01-10T05:38:22;13.90;47.60
42149;DHT22;64624;47.208;8.706;2024-01-10T05:40:47;13.90;47.60
42149;DHT22;64624;47.208;8.706;2024-01-10T05:43:13;13.90;47.60
42149;DHT22;64624;47.208;8.706;2024-01-10T05:45:41;13.90;47.60
42149;DHT22;64624;47.208;8.706;2024-01-10T05:48:06;13.90;47.60
42149;DHT22;64624;47.208;8.706;2024-01-10T05:50:32;13.90;47.60
42149;DHT22;64624;47.208;8.706;2024-01-10T05:52:58;13.90;47.60
42149;DHT22;64624;47.208;8.706;2024-01-10T05:55:23;13.90;47.60
42149;DHT22;64624;47.208;8.706;2024-01-10T05:57:50;13.90;47.60
42149;DHT22;64624;47.208;8.706;2024-01-10T06:00:16;13.90;47.60
42149;DHT22;64624;47.208;8.706;2024-01-10T06:02:42;13.90;47.60
42149;DHT22;64624;47.208;8.706;2024-01-10T06:05:11;13.90;47.60
42149;DHT22;64624;47.208;8.706;2024-01-10T06:07:38;13.90;47.60
42149;DHT22;64624;47.208;8.706;2024-01-10T06:10:05;13.90;47.50
42149;DHT22;64624;47.208;8.706;2024-01-10T06:12:31;13.90;47.60
42149;DHT22;64624;47.208;8.706;2024-01-10T06:14:57;13.80;47.60
42149;DHT22;64624;47.208;8.706;2024-01-10T06:17:23;13.90;47.70
42149;DHT22;64624;47.208;8.706;2024-01-10T06:19:49;13.80;47.70
42149;DHT22;64624;47.208;8.706;2024-01-10T06:22:15;13.80;47.60
42149;DHT22;64624;47.208;8.706;2024-01-10T06:24:42;13.90;47.70
42149;DHT22;64624;47.208;8.706;2024-01-10T06:27:08;13.80;47.60
42149;DHT22;64624;47.208;8.706;2024-01-10T06:29:35;13.80;47.70
42149;DHT22;64624;47.208;8.706;2024-01-10T06:32:01;13.80;47.60
42149;DHT22;64624;47.208;8.706;2024-01-10T06:34:27;13.80;47.60
42149;DHT22;64624;47.208;8.706;2024-01-10T06:36:53;13.80;47.60
42149;DHT22;64624;47.208;8.706;2024-01-10T06:39:19;13.80;47.60
42149;DHT22;64624;47.208;8.706;2024-01-10T06:41:47;13.90;47.60
42149;DHT22;64624;47.208;8.706;2024-01-10T06:44:13;13.80;47.60
42149;DHT22;64624;47.208;8.706;2024-01-10T06:46:39;13.80;47.60
42149;DHT22;64624;47.208;8.706;2024-01-10T06:49:04;13.80;47.60
42149;DHT22;64624;47.208;8.706;2024-01-10T06:51:32;13.80;47.50
42149;DHT22;64624;47.208;8.706;2024-01-10T06:53:57;13.80;47.50
42149;DHT22;64624;47.208;8.706;2024-01-10T06:56:29;13.80;47.50
42149;DHT22;64624;47.208;8.706;2024-01-10T06:58:56;13.80;47.50
42149;DHT22;64624;47.208;8.706;2024-01-10T07:01:25;13.80;47.50
42149;DHT22;64624;47.208;8.706;2024-01-10T07:03:52;13.80;47.60
42149;DHT22;64624;47.208;8.706;2024-01-10T07:06:18;13.80;47.50
42149;DHT22;64624;47.208;8.706;2024-01-10T07:08:44;13.80;47.60
42149;DHT22;64624;47.208;8.706;2024-01-10T07:11:10;13.80;47.50
42149;DHT22;64624;47.208;8.706;2024-01-10T07:13:40;13.80;47.50
42149;DHT22;64624;47.208;8.706;2024-01-10T07:16:06;13.80;47.50
42149;DHT22;64624;47.208;8.706;2024-01-10T07:18:32;13.80;47.60
42149;DHT22;64624;47.208;8.706;2024-01-10T07:20:58;13.80;47.70
42149;DHT22;64624;47.208;8.706;2024-01-10T07:23:24;13.90;47.60
42149;DHT22;64624;47.208;8.706;2024-01-10T07:25:50;13.80;47.50
42149;DHT22;64624;47.208;8.706;2024-01-10T07:28:16;13.80;47.50
42149;DHT22;64624;47.208;8.706;2024-01-10T07:30:43;13.80;47.60
42149;DHT22;64624;47.208;8.706;2024-01-10T07:33:10;13.80;47.60
42149;DHT22;64624;47.208;8.706;2024-01-10T07:35:36;13.80;47.60
42149;DHT22;64624;47.208;8.706;2024-01-10T07:38:01;13.80;47.50
42149;DHT22;64624;47.208;8.706;2024-01-10T07:40:27;13.80;47.60
42149;DHT22;64624;47.208;8.706;2024-01-10T07:42:53;13.80;46.50
42149;DHT22;64624;47.208;8.706;2024-01-10T07:45:18;13.80;46.20
42149;DHT22;64624;47.208;8.706;2024-01-10T07:47:44;13.80;46.60
42149;DHT22;64624;47.208;8.706;2024-01-10T07:50:12;13.90;47.90
42149;DHT22;64624;47.208;8.706;2024-01-10T07:52:40;13.90;48.70
42149;DHT22;64624;47.208;8.706;2024-01-10T07:55:06;13.90;47.70
42149;DHT22;64624;47.208;8.706;2024-01-10T07:57:33;13.90;48.00
42149;DHT22;64624;47.208;8.706;2024-01-10T07:59:59;13.90;47.40
42149;DHT22;64624;47.208;8.706;2024-01-10T08:02:25;13.90;47.40
42149;DHT22;64624;47.208;8.706;2024-01-10T08:04:52;13.90;47.30
42149;DHT22;64624;47.208;8.706;2024-01-10T08:07:18;13.90;47.30
42149;DHT22;64624;47.208;8.706;2024-01-10T08:09:45;13.90;47.20
42149;DHT22;64624;47.208;8.706;2024-01-10T08:12:11;14.00;47.20
42149;DHT22;64624;47.208;8.706;2024-01-10T08:14:37;14.00;47.20
42149;DHT22;64624;47.208;8.706;2024-01-10T08:17:03;14.00;47.20
42149;DHT22;64624;47.208;8.706;2024-01-10T08:19:29;14.00;47.10
42149;DHT22;64624;47.208;8.706;2024-01-10T08:21:55;14.10;47.10
42149;DHT22;64624;47.208;8.706;2024-01-10T08:24:21;14.00;47.10
42149;DHT22;64624;47.208;8.706;2024-01-10T08:26:48;14.10;47.10
42149;DHT22;64624;47.208;8.706;2024-01-10T08:29:18;15.60;46.60
42149;DHT22;64624;47.208;8.706;2024-01-10T08:31:45;18.90;41.70
42149;DHT22;64624;47.208;8.706;2024-01-10T08:34:11;21.30;38.20
42149;DHT22;64624;47.208;8.706;2024-01-10T08:36:37;23.20;35.70
42149;DHT22;64624;47.208;8.706;2024-01-10T08:39:03;24.50;34.10
42149;DHT22;64624;47.208;8.706;2024-01-10T08:41:30;24.70;32.10
42149;DHT22;64624;47.208;8.706;2024-01-10T08:43:56;25.50;31.60
42149;DHT22;64624;47.208;8.706;2024-01-10T08:46:23;26.10;31.30
42149;DHT22;64624;47.208;8.706;2024-01-10T08:48:52;25.10;32.00
42149;DHT22;64624;47.208;8.706;2024-01-10T08:51:17;23.80;33.90
42149;DHT22;64624;47.208;8.706;2024-01-10T08:53:44;22.60;35.10
42149;DHT22;64624;47.208;8.706;2024-01-10T08:56:10;21.60;37.20
42149;DHT22;64624;47.208;8.706;2024-01-10T08:58:36;20.70;38.40
42149;DHT22;64624;47.208;8.706;2024-01-10T09:01:02;20.10;40.40
42149;DHT22;64624;47.208;8.706;2024-01-10T09:03:30;19.50;41.30
42149;DHT22;64624;47.208;8.706;2024-01-10T09:05:56;19.10;41.70
42149;DHT22;64624;47.208;8.706;2024-01-10T09:08:22;18.60;42.80
42149;DHT22;64624;47.208;8.706;2024-01-10T09:10:48;18.30;44.20
42149;DHT22;64624;47.208;8.706;2024-01-10T09:13:17;18.00;44.60
42149;DHT22;64624;47.208;8.706;2024-01-10T09:15:43;17.70;44.90
42149;DHT22;64624;47.208;8.706;2024-01-10T09:18:08;17.40;44.90
42149;DHT22;64624;47.208;8.706;2024-01-10T09:20:34;17.20;45.10
42149;DHT22;64624;47.208;8.706;2024-01-10T09:23:01;16.90;44.80
42149;DHT22;64624;47.208;8.706;2024-01-10T09:25:28;16.70;44.70
42149;DHT22;64624;47.208;8.706;2024-01-10T09:27:54;16.50;44.50
42149;DHT22;64624;47.208;8.706;2024-01-10T09:30:20;16.40;44.80
42149;DHT22;64624;47.208;8.706;2024-01-10T09:32:45;16.30;44.90
42149;DHT22;64624;47.208;8.706;2024-01-10T09:35:11;16.20;45.00
42149;DHT22;64624;47.208;8.706;2024-01-10T09:37:39;16.00;45.10
42149;DHT22;64624;47.208;8.706;2024-01-10T09:40:06;16.00;45.10
42149;DHT22;64624;47.208;8.706;2024-01-10T09:42:34;15.90;45.20
42149;DHT22;64624;47.208;8.706;2024-01-10T09:45:01;15.80;45.20
42149;DHT22;64624;47.208;8.706;2024-01-10T09:47:29;15.70;45.90
42149;DHT22;64624;47.208;8.706;2024-01-10T09:49:56;15.70;45.50
42149;DHT22;64624;47.208;8.706;2024-01-10T09:52:36;15.60;45.60
42149;DHT22;64624;47.208;8.706;2024-01-10T09:55:05;15.50;45.60
42149;DHT22;64624;47.208;8.706;2024-01-10T09:57:31;15.40;45.70
42149;DHT22;64624;47.208;8.706;2024-01-10T09:59:57;15.40;45.80
42149;DHT22;64624;47.208;8.706;2024-01-10T10:02:23;15.30;45.90
42149;DHT22;64624;47.208;8.706;2024-01-10T10:05:13;15.30;46.00
42149;DHT22;64624;47.208;8.706;2024-01-10T10:07:46;15.20;46.10
42149;DHT22;64624;47.208;8.706;2024-01-10T10:10:12;15.20;46.20
42149;DHT22;64624;47.208;8.706;2024-01-10T10:15:14;15.10;46.30
42149;DHT22;64624;47.208;8.706;2024-01-10T10:17:41;15.10;46.40
42149;DHT22;64624;47.208;8.706;2024-01-10T10:20:27;15.00;46.50
42149;DHT22;64624;47.208;8.706;2024-01-10T10:23:06;15.00;46.50
42149;DHT22;64624;47.208;8.706;2024-01-10T10:25:35;14.90;46.50
42149;DHT22;64624;47.208;8.706;2024-01-10T10:28:02;14.90;46.60
42149;DHT22;64624;47.208;8.706;2024-01-10T10:30:31;14.80;46.70
42149;DHT22;64624;47.208;8.706;2024-01-10T10:32:57;14.80;46.70
42149;DHT22;64624;47.208;8.706;2024-01-10T10:35:23;14.80;46.80
42149;DHT22;64624;47.208;8.706;2024-01-10T10:37:50;14.80;46.80
42149;DHT22;64624;47.208;8.706;2024-01-10T10:40:17;14.80;46.90
42149;DHT22;64624;47.208;8.706;2024-01-10T10:42:55;14.70;46.90
42149;DHT22;64624;47.208;8.706;2024-01-10T10:45:22;14.70;46.90
42149;DHT22;64624;47.208;8.706;2024-01-10T10:47:56;14.70;47.00
42149;DHT22;64624;47.208;8.706;2024-01-10T10:50:23;14.70;47.10
42149;DHT22;64624;47.208;8.706;2024-01-10T10:52:50;14.60;47.10
42149;DHT22;64624;47.208;8.706;2024-01-10T10:55:17;14.60;47.60
42149;DHT22;64624;47.208;8.706;2024-01-10T10:57:47;14.60;47.10
42149;DHT22;64624;47.208;8.706;2024-01-10T11:00:14;14.60;47.10
42149;DHT22;64624;47.208;8.706;2024-01-10T11:02:41;14.50;47.10
42149;DHT22;64624;47.208;8.706;2024-01-10T11:05:08;14.50;47.10
42149;DHT22;64624;47.208;8.706;2024-01-10T11:07:38;14.50;47.20
42149;DHT22;64624;47.208;8.706;2024-01-10T11:10:08;14.50;47.20
42149;DHT22;64624;47.208;8.706;2024-01-10T11:15:53;14.40;47.20
42149;DHT22;64624;47.208;8.706;2024-01-10T11:21:37;14.40;47.20
42149;DHT22;64624;47.208;8.706;2024-01-10T11:24:08;14.40;47.30
42149;DHT22;64624;47.208;8.706;2024-01-10T11:26:37;14.40;47.40
42149;DHT22;64624;47.208;8.706;2024-01-10T11:29:04;14.40;47.50
42149;DHT22;64624;47.208;8.706;2024-01-10T11:31:32;14.40;47.50
42149;DHT22;64624;47.208;8.706;2024-01-10T11:34:01;14.40;47.40
42149;DHT22;64624;47.208;8.706;2024-01-10T11:36:27;14.40;47.40
42149;DHT22;64624;47.208;8.706;2024-01-10T11:46:45;14.30;47.50
42149;DHT22;64624;47.208;8.706;2024-01-10T11:49:16;14.30;47.50
42149;DHT22;64624;47.208;8.706;2024-01-10T11:51:47;14.30;47.60
42149;DHT22;64624;47.208;8.706;2024-01-10T11:54:50;14.30;47.60
42149;DHT22;64624;47.208;8.706;2024-01-10T11:57:25;14.30;47.60
42149;DHT22;64624;47.208;8.706;2024-01-10T11:59:54;14.30;47.60
42149;DHT22;64624;47.208;8.706;2024-01-10T12:02:21;14.20;47.60
42149;DHT22;64624;47.208;8.706;2024-01-10T12:04:48;14.30;47.60
42149;DHT22;64624;47.208;8.706;2024-01-10T12:07:15;14.20;47.50
42149;DHT22;64624;47.208;8.706;2024-01-10T12:09:41;14.20;47.60
42149;DHT22;64624;47.208;8.706;2024-01-10T12:12:10;14.20;47.60
42149;DHT22;64624;47.208;8.706;2024-01-10T12:14:39;14.20;47.60
42149;DHT22;64624;47.208;8.706;2024-01-10T12:17:05;14.30;47.20
42149;DHT22;64624;47.208;8.706;2024-01-10T12:19:34;14.10;45.30
42149;DHT22;64624;47.208;8.706;2024-01-10T12:22:00;14.00;44.50
42149;DHT22;64624;47.208;8.706;2024-01-10T12:24:28;13.90;45.00
42149;DHT22;64624;47.208;8.706;2024-01-10T12:26:56;13.90;45.40
42149;DHT22;64624;47.208;8.706;2024-01-10T12:29:22;13.90;45.70
42149;DHT22;64624;47.208;8.706;2024-01-10T12:31:50;13.90;46.00
42149;DHT22;64624;47.208;8.706;2024-01-10T12:34:16;13.90;46.20
42149;DHT22;64624;47.208;8.706;2024-01-10T12:36:42;14.00;46.30
42149;DHT22;64624;47.208;8.706;2024-01-10T12:39:13;14.00;46.50
42149;DHT22;64624;47.208;8.706;2024-01-10T12:41:40;14.00;46.60
42149;DHT22;64624;47.208;8.706;2024-01-10T12:44:06;14.00;46.60
42149;DHT22;64624;47.208;8.706;2024-01-10T12:46:32;13.90;46.60
42149;DHT22;64624;47.208;8.706;2024-01-10T12:49:06;13.90;46.60
42149;DHT22;64624;47.208;8.706;2024-01-10T12:51:33;14.00;46.70
42149;DHT22;64624;47.208;8.706;2024-01-10T12:54:00;14.00;46.80
42149;DHT22;64624;47.208;8.706;2024-01-10T12:56:27;14.00;46.90
42149;DHT22;64624;47.208;8.706;2024-01-10T12:58:53;14.00;47.00
42149;DHT22;64624;47.208;8.706;2024-01-10T13:01:21;14.00;47.00
42149;DHT22;64624;47.208;8.706;2024-01-10T13:03:46;14.00;47.10
42149;DHT22;64624;47.208;8.706;2024-01-10T13:06:14;13.90;47.10
42149;DHT22;64624;47.208;8.706;2024-01-10T13:08:39;14.00;47.30
42149;DHT22;64624;47.208;8.706;2024-01-10T13:11:05;14.00;47.40
42149;DHT22;64624;47.208;8.706;2024-01-10T13:13:38;14.00;47.40
42149;DHT22;64624;47.208;8.706;2024-01-10T13:16:04;14.00;47.40
42149;DHT22;64624;47.208;8.706;2024-01-10T13:18:30;14.00;47.40
42149;DHT22;64624;47.208;8.706;2024-01-10T13:20:56;14.00;47.40
42149;DHT22;64624;47.208;8.706;2024-01-10T13:23:23;14.00;47.40
42149;DHT22;64624;47.208;8.706;2024-01-10T13:25:51;14.00;47.50
42149;DHT22;64624;47.208;8.706;2024-01-10T13:28:18;14.00;47.50
42149;DHT22;64624;47.208;8.706;2024-01-10T13:30:44;14.00;47.50
42149;DHT22;64624;47.208;8.706;2024-01-10T13:33:10;14.00;47.50
42149;DHT22;64624;47.208;8.706;2024-01-10T13:35:37;14.00;47.50
42149;DHT22;64624;47.208;8.706;2024-01-10T13:38:03;14.00;47.50
42149;DHT22;64624;47.208;8.706;2024-01-10T13:40:30;14.00;47.50
42149;DHT22;64624;47.208;8.706;2024-01-10T13:42:57;14.00;47.50
42149;DHT22;64624;47.208;8.706;2024-01-10T13:45:24;14.00;47.60
42149;DHT22;64624;47.208;8.706;2024-01-10T13:47:52;14.00;47.60
42149;DHT22;64624;47.208;8.706;2024-01-10T13:50:17;14.00;47.60
42149;DHT22;64624;47.208;8.706;2024-01-10T13:52:43;14.00;47.60
42149;DHT22;64624;47.208;8.706;2024-01-10T13:55:09;14.00;47.60
42149;DHT22;64624;47.208;8.706;2024-01-10T13:57:35;14.00;47.60
42149;DHT22;64624;47.208;8.706;2024-01-10T14:00:02;13.90;47.60
42149;DHT22;64624;47.208;8.706;2024-01-10T14:02:28;14.00;47.60
42149;DHT22;64624;47.208;8.706;2024-01-10T14:04:54;14.00;47.70
42149;DHT22;64624;47.208;8.706;2024-01-10T14:07:23;14.00;47.70
42149;DHT22;64624;47.208;8.706;2024-01-10T14:09:50;14.00;47.70
42149;DHT22;64624;47.208;8.706;2024-01-10T14:12:15;14.00;47.80
42149;DHT22;64624;47.208;8.706;2024-01-10T14:14:41;14.00;47.80
42149;DHT22;64624;47.208;8.706;2024-01-10T14:17:07;13.90;47.80
42149;DHT22;64624;47.208;8.706;2024-01-10T14:19:32;13.90;47.10
42149;DHT22;64624;47.208;8.706;2024-01-10T14:21:58;13.80;47.10
42149;DHT22;64624;47.208;8.706;2024-01-10T14:24:25;13.80;46.70
42149;DHT22;64624;47.208;8.706;2024-01-10T14:26:51;13.80;46.90
42149;DHT22;64624;47.208;8.706;2024-01-10T14:29:17;13.90;47.10
42149;DHT22;64624;47.208;8.706;2024-01-10T14:31:42;13.90;47.10
42149;DHT22;64624;47.208;8.706;2024-01-10T14:34:08;13.90;47.30
42149;DHT22;64624;47.208;8.706;2024-01-10T14:36:37;13.90;47.40
42149;DHT22;64624;47.208;8.706;2024-01-10T14:39:03;13.90;47.40
42149;DHT22;64624;47.208;8.706;2024-01-10T14:41:35;13.90;47.40
42149;DHT22;64624;47.208;8.706;2024-01-10T14:44:01;13.90;47.50
42149;DHT22;64624;47.208;8.706;2024-01-10T14:46:27;13.90;47.40
42149;DHT22;64624;47.208;8.706;2024-01-10T14:48:54;13.90;47.50
42149;DHT22;64624;47.208;8.706;2024-01-10T14:51:19;13.90;47.50
42149;DHT22;64624;47.208;8.706;2024-01-10T14:53:45;13.90;47.00
42149;DHT22;64624;47.208;8.706;2024-01-10T14:56:11;13.90;46.70
42149;DHT22;64624;47.208;8.706;2024-01-10T14:58:38;13.90;47.00
42149;DHT22;64624;47.208;8.706;2024-01-10T15:01:08;13.90;47.10
42149;DHT22;64624;47.208;8.706;2024-01-10T15:03:34;13.90;47.30
42149;DHT22;64624;47.208;8.706;2024-01-10T15:06:00;13.90;47.20
42149;DHT22;64624;47.208;8.706;2024-01-10T15:08:26;13.90;48.90
42149;DHT22;64624;47.208;8.706;2024-01-10T15:10:51;14.00;49.50
42149;DHT22;64624;47.208;8.706;2024-01-10T15:13:18;13.90;48.00
42149;DHT22;64624;47.208;8.706;2024-01-10T15:15:44;13.90;47.90
42149;DHT22;64624;47.208;8.706;2024-01-10T15:18:10;14.00;47.40
42149;DHT22;64624;47.208;8.706;2024-01-10T15:20:36;14.00;45.70
42149;DHT22;64624;47.208;8.706;2024-01-10T15:23:01;13.90;44.60
42149;DHT22;64624;47.208;8.706;2024-01-10T15:25:27;13.80;44.80
42149;DHT22;64624;47.208;8.706;2024-01-10T15:27:53;13.80;45.50
42149;DHT22;64624;47.208;8.706;2024-01-10T15:30:19;13.80;46.30
42149;DHT22;64624;47.208;8.706;2024-01-10T15:32:47;13.80;46.00
42149;DHT22;64624;47.208;8.706;2024-01-10T15:35:15;13.60;45.80
42149;DHT22;64624;47.208;8.706;2024-01-10T15:37:41;13.60;45.10
42149;DHT22;64624;47.208;8.706;2024-01-10T15:40:10;13.70;45.40
42149;DHT22;64624;47.208;8.706;2024-01-10T15:42:45;13.70;45.70
42149;DHT22;64624;47.208;8.706;2024-01-10T15:45:11;13.70;45.90